createdAt,value
2018-06-17T00:00:57.571Z,99.99
2018-06-17T00:01:57.572Z,99.99
2018-06-17T00:02:57.577Z,99.99
2018-06-17T00:03:57.581Z,99.99
2018-06-17T00:04:57.582Z,99.99
2018-06-17T00:05:57.584Z,99.99
2018-06-17T00:06:57.586Z,99.99
2018-06-17T00:07:57.590Z,99.99
2018-06-17T00:08:57.592Z,99.99
2018-06-17T00:09:57.597Z,99.99
2018-06-17T00:10:57.598Z,99.99
2018-06-17T00:11:57.601Z,99.99
2018-06-17T00:12:57.604Z,99.99
2018-06-17T00:13:57.606Z,99.99
2018-06-17T00:14:57.607Z,99.99
2018-06-17T00:15:57.612Z,99.99
2018-06-17T00:16:57.615Z,99.99
2018-06-17T00:17:57.616Z,99.99
2018-06-17T00:18:57.620Z,99.99
2018-06-17T00:19:57.623Z,99.99
2018-06-17T00:20:57.626Z,99.99
2018-06-17T00:21:57.627Z,99.99
2018-06-17T00:22:57.630Z,99.99
2018-06-17T00:23:57.633Z,99.99
2018-06-17T00:24:57.636Z,99.99
2018-06-17T00:25:57.638Z,99.99
2018-06-17T00:26:57.641Z,99.99
2018-06-17T00:27:57.645Z,99.99
2018-06-17T00:28:57.646Z,99.99
2018-06-17T00:29:57.649Z,99.99
2018-06-17T00:30:57.652Z,99.99
2018-06-17T00:31:57.655Z,99.99
2018-06-17T00:32:57.657Z,99.99
2018-06-17T00:33:57.659Z,99.99
2018-06-17T00:34:57.665Z,99.99
2018-06-17T00:35:57.665Z,99.99
2018-06-17T00:36:57.668Z,99.99
2018-06-17T00:37:57.668Z,99.99
2018-06-17T00:38:57.673Z,99.99
2018-06-17T00:39:57.675Z,99.99
2018-06-17T00:40:57.679Z,99.99
2018-06-17T00:41:57.680Z,99.99
2018-06-17T00:42:57.683Z,99.99
2018-06-17T00:43:57.685Z,99.99
2018-06-17T00:44:57.689Z,99.99
2018-06-17T00:45:57.690Z,99.99
2018-06-17T00:46:57.693Z,99.99
2018-06-17T00:47:57.696Z,99.99
2018-06-17T00:48:57.699Z,99.99
2018-06-17T00:49:57.701Z,99.99
2018-06-17T00:50:57.703Z,99.99
2018-06-17T00:51:57.707Z,99.99
2018-06-17T00:52:57.709Z,99.99
2018-06-17T00:53:57.713Z,99.99
2018-06-17T00:54:57.715Z,99.99
2018-06-17T00:55:57.714Z,99.99
2018-06-17T00:56:57.718Z,99.99
2018-06-17T00:57:57.720Z,99.99
2018-06-17T00:58:57.724Z,99.99
2018-06-17T00:59:57.725Z,99.99
2018-06-17T01:00:57.728Z,99.99
2018-06-17T01:01:57.730Z,99.99
2018-06-17T01:02:57.732Z,99.99
2018-06-17T01:03:57.733Z,99.99
2018-06-17T01:04:57.738Z,99.99
2018-06-17T01:05:57.740Z,99.99
2018-06-17T01:06:57.742Z,99.99
2018-06-17T01:07:57.744Z,99.99
2018-06-17T01:08:57.747Z,99.99
2018-06-17T01:09:57.749Z,99.99
2018-06-17T01:10:57.751Z,99.99
2018-06-17T01:11:57.757Z,99.99
2018-06-17T01:12:57.756Z,99.99
2018-06-17T01:13:57.756Z,99.99
2018-06-17T01:14:57.760Z,99.99
2018-06-17T01:15:57.762Z,99.99
2018-06-17T01:16:57.765Z,99.99
2018-06-17T01:17:57.766Z,99.99
2018-06-17T01:18:57.791Z,99.99
2018-06-17T01:19:57.774Z,99.99
2018-06-17T01:20:57.773Z,99.99
2018-06-17T01:21:57.777Z,99.99
2018-06-17T01:22:57.776Z,99.99
2018-06-17T01:23:57.779Z,99.99
2018-06-17T01:24:57.781Z,99.99
2018-06-17T01:25:57.782Z,99.99
2018-06-17T01:26:57.785Z,99.99
2018-06-17T01:27:57.787Z,99.99
2018-06-17T01:28:57.789Z,99.99
2018-06-17T01:29:57.791Z,99.99
2018-06-17T01:30:57.792Z,99.99
2018-06-17T01:31:57.795Z,99.99
2018-06-17T01:32:57.800Z,99.99
2018-06-17T01:33:57.798Z,99.99
2018-06-17T01:34:57.802Z,99.99
2018-06-17T01:35:57.803Z,99.99
2018-06-17T01:36:57.804Z,99.99
2018-06-17T01:37:57.806Z,99.99
2018-06-17T01:38:57.807Z,99.99
2018-06-17T01:39:57.811Z,99.99
2018-06-17T01:40:57.811Z,99.99
2018-06-17T01:41:57.816Z,99.99
2018-06-17T01:42:57.814Z,99.99
2018-06-17T01:43:57.816Z,99.99
2018-06-17T01:44:57.818Z,99.99
2018-06-17T01:45:57.819Z,99.99
2018-06-17T01:46:57.819Z,99.99
2018-06-17T01:47:57.822Z,99.99
2018-06-17T01:48:57.824Z,99.99
2018-06-17T01:49:57.833Z,99.99
2018-06-17T01:50:57.826Z,99.99
2018-06-17T01:51:57.828Z,99.99
2018-06-17T01:52:57.830Z,99.99
2018-06-17T01:53:57.831Z,99.99
2018-06-17T01:54:57.833Z,99.99
2018-06-17T01:55:57.834Z,99.99
2018-06-17T01:56:57.836Z,99.99
2018-06-17T01:57:57.836Z,99.99
2018-06-17T01:58:57.841Z,99.99
2018-06-17T01:59:57.841Z,99.99
2018-06-17T02:00:57.845Z,99.99
2018-06-17T02:01:57.841Z,99.99
2018-06-17T02:02:57.844Z,99.99
2018-06-17T02:03:57.844Z,99.99
2018-06-17T02:04:57.846Z,99.99
2018-06-17T02:05:57.846Z,99.99
2018-06-17T02:06:57.850Z,99.99
2018-06-17T02:07:57.850Z,99.99
2018-06-17T02:08:57.852Z,99.99
2018-06-17T02:09:57.852Z,99.99
2018-06-17T02:10:57.854Z,99.99
2018-06-17T02:11:57.855Z,99.99
2018-06-17T02:12:57.857Z,99.99
2018-06-17T02:13:57.857Z,99.99
2018-06-17T02:14:57.858Z,99.99
2018-06-17T02:15:57.862Z,99.99
2018-06-17T02:16:57.862Z,99.99
2018-06-17T02:17:57.863Z,99.99
2018-06-17T02:18:57.864Z,99.99
2018-06-17T02:19:57.867Z,99.99
2018-06-17T02:20:57.867Z,99.99
2018-06-17T02:21:57.869Z,99.99
2018-06-17T02:22:57.872Z,99.99
2018-06-17T02:23:57.871Z,99.99
2018-06-17T02:24:57.878Z,99.99
2018-06-17T02:25:57.874Z,99.99
2018-06-17T02:26:57.874Z,99.99
2018-06-17T02:27:57.877Z,99.99
2018-06-17T02:28:57.878Z,99.99
2018-06-17T02:29:57.879Z,99.99
2018-06-17T02:30:57.881Z,99.99
2018-06-17T02:31:57.882Z,99.99
2018-06-17T02:32:57.884Z,99.99
2018-06-17T02:33:57.885Z,99.99
2018-06-17T02:34:57.890Z,99.99
2018-06-17T02:35:57.888Z,99.99
2018-06-17T02:36:57.889Z,99.99
2018-06-17T02:37:57.890Z,99.99
2018-06-17T02:38:57.892Z,99.99
2018-06-17T02:39:57.893Z,99.99
2018-06-17T02:40:57.895Z,99.99
2018-06-17T02:41:57.895Z,99.99
2018-06-17T02:42:57.897Z,99.99
2018-06-17T02:43:57.898Z,99.99
2018-06-17T02:44:57.899Z,99.99
2018-06-17T02:45:57.904Z,99.99
2018-06-17T02:46:57.901Z,99.99
2018-06-17T02:47:57.910Z,99.99
2018-06-17T02:48:57.905Z,99.99
2018-06-17T02:49:57.906Z,99.99
2018-06-17T02:50:57.906Z,99.99
2018-06-17T02:51:57.907Z,99.99
2018-06-17T02:52:57.909Z,99.99
2018-06-17T02:53:57.911Z,99.99
2018-06-17T02:54:57.911Z,99.99
2018-06-17T02:55:57.913Z,99.99
2018-06-17T02:56:57.914Z,99.99
2018-06-17T02:57:57.915Z,99.99
2018-06-17T02:58:57.916Z,99.99
2018-06-17T02:59:57.918Z,99.99
2018-06-17T03:00:57.919Z,99.99
2018-06-17T03:01:57.920Z,99.99
2018-06-17T03:02:57.920Z,99.99
2018-06-17T03:03:57.951Z,99.99
2018-06-17T03:04:57.923Z,99.99
2018-06-17T03:05:57.924Z,99.99
2018-06-17T03:06:57.926Z,99.99
2018-06-17T03:07:57.925Z,99.99
2018-06-17T03:08:57.928Z,99.99
2018-06-17T03:09:57.934Z,99.99
2018-06-17T03:10:57.931Z,99.99
2018-06-17T03:11:57.931Z,99.99
2018-06-17T03:12:57.933Z,99.99
2018-06-17T03:13:57.933Z,99.99
2018-06-17T03:14:57.934Z,99.99
2018-06-17T03:15:57.936Z,99.99
2018-06-17T03:16:57.940Z,99.99
2018-06-17T03:17:57.938Z,99.99
2018-06-17T03:18:57.938Z,99.99
2018-06-17T03:19:57.940Z,99.99
2018-06-17T03:20:57.941Z,99.99
2018-06-17T03:21:57.942Z,99.99
2018-06-17T03:22:57.943Z,99.99
2018-06-17T03:23:57.945Z,99.99
2018-06-17T03:24:57.945Z,99.99
2018-06-17T03:25:57.947Z,99.99
2018-06-17T03:26:57.965Z,99.99
2018-06-17T03:27:57.950Z,99.99
2018-06-17T03:28:57.953Z,99.99
2018-06-17T03:29:57.951Z,99.99
2018-06-17T03:30:57.953Z,99.99
2018-06-17T03:31:57.954Z,99.99
2018-06-17T03:32:57.955Z,99.99
2018-06-17T03:33:57.955Z,99.99
2018-06-17T03:34:57.957Z,99.99
2018-06-17T03:35:57.958Z,99.99
2018-06-17T03:36:57.960Z,99.99
2018-06-17T03:37:57.960Z,99.99
2018-06-17T03:38:57.963Z,99.99
2018-06-17T03:39:57.963Z,99.99
2018-06-17T03:40:57.965Z,99.99
2018-06-17T03:41:57.968Z,99.99
2018-06-17T03:42:57.967Z,99.99
2018-06-17T03:43:57.967Z,99.99
2018-06-17T03:44:57.969Z,99.99
2018-06-17T03:45:57.971Z,99.99
2018-06-17T03:46:57.971Z,99.99
2018-06-17T03:47:57.973Z,99.99
2018-06-17T03:48:57.974Z,99.99
2018-06-17T03:49:57.978Z,99.99
2018-06-17T03:50:57.976Z,99.99
2018-06-17T03:51:57.978Z,99.99
2018-06-17T03:52:57.979Z,99.99
2018-06-17T03:53:57.981Z,99.99
2018-06-17T03:54:57.980Z,99.99
2018-06-17T03:55:57.983Z,99.99
2018-06-17T03:56:57.983Z,99.99
2018-06-17T03:57:57.984Z,99.99
2018-06-17T03:58:57.984Z,99.99
2018-06-17T03:59:57.986Z,99.99
2018-06-17T04:00:57.987Z,99.99
2018-06-17T04:01:57.988Z,99.99
2018-06-17T04:02:57.989Z,99.99
2018-06-17T04:03:58.049Z,99.99
2018-06-17T04:04:57.992Z,99.99
2018-06-17T04:05:57.992Z,99.99
2018-06-17T04:06:57.994Z,99.99
2018-06-17T04:07:57.995Z,99.99
2018-06-17T04:08:57.996Z,99.99
2018-06-17T04:09:57.998Z,99.99
2018-06-17T04:10:57.998Z,99.99
2018-06-17T04:11:58.001Z,99.99
2018-06-17T04:12:57.999Z,99.99
2018-06-17T04:13:58.002Z,99.99
2018-06-17T04:14:58.003Z,99.99
2018-06-17T04:15:58.017Z,99.99
2018-06-17T04:16:58.006Z,99.99
2018-06-17T04:17:58.005Z,99.99
2018-06-17T04:18:58.007Z,99.99
2018-06-17T04:19:58.008Z,99.99
2018-06-17T04:20:58.010Z,99.99
2018-06-17T04:21:58.010Z,99.99
2018-06-17T04:22:58.012Z,99.99
2018-06-17T04:23:58.013Z,99.99
2018-06-17T04:24:58.014Z,99.99
2018-06-17T04:25:58.014Z,99.99
2018-06-17T04:26:58.016Z,99.99
2018-06-17T04:27:58.016Z,99.99
2018-06-17T04:28:58.018Z,99.99
2018-06-17T04:29:58.017Z,99.99
2018-06-17T04:30:58.019Z,99.99
2018-06-17T04:31:58.020Z,99.99
2018-06-17T04:32:58.021Z,99.99
2018-06-17T04:33:58.023Z,99.99
2018-06-17T04:34:58.022Z,99.99
2018-06-17T04:35:58.024Z,99.99
2018-06-17T04:36:58.025Z,99.99
2018-06-17T04:37:58.025Z,99.99
2018-06-17T04:38:58.028Z,99.99
2018-06-17T04:39:58.027Z,99.99
2018-06-17T04:40:58.028Z,99.99
2018-06-17T04:41:58.029Z,99.99
2018-06-17T04:42:58.030Z,99.99
2018-06-17T04:43:58.031Z,99.99
2018-06-17T04:44:58.032Z,99.99
2018-06-17T04:45:58.033Z,99.99
2018-06-17T04:46:58.034Z,99.99
2018-06-17T04:47:58.035Z,99.99
2018-06-17T04:48:58.037Z,99.99
2018-06-17T04:49:58.037Z,99.99
2018-06-17T04:50:58.037Z,99.99
2018-06-17T04:51:58.039Z,99.99
2018-06-17T04:52:58.040Z,99.99
2018-06-17T04:53:58.041Z,99.99
2018-06-17T04:54:58.039Z,99.99
2018-06-17T04:55:58.049Z,99.99
2018-06-17T04:56:58.044Z,99.99
2018-06-17T04:57:58.044Z,99.99
2018-06-17T04:58:58.044Z,99.99
2018-06-17T04:59:58.071Z,99.99
2018-06-17T05:00:58.048Z,99.99
2018-06-17T05:01:58.048Z,99.99
2018-06-17T05:02:58.049Z,99.99
2018-06-17T05:03:58.050Z,99.99
2018-06-17T05:04:58.053Z,99.99
2018-06-17T05:05:58.054Z,99.99
2018-06-17T05:06:58.052Z,99.99
2018-06-17T05:07:58.053Z,99.99
2018-06-17T05:08:58.054Z,99.99
2018-06-17T05:09:58.056Z,99.99
2018-06-17T05:10:58.056Z,99.99
2018-06-17T05:11:58.059Z,99.99
2018-06-17T05:12:58.059Z,99.99
2018-06-17T05:13:58.060Z,99.99
2018-06-17T05:14:58.060Z,99.99
2018-06-17T05:15:58.061Z,99.99
2018-06-17T05:16:58.063Z,99.99
2018-06-17T05:17:58.063Z,99.99
2018-06-17T05:18:58.065Z,99.99
2018-06-17T05:19:58.066Z,99.99
2018-06-17T05:20:58.067Z,99.99
2018-06-17T05:21:58.072Z,99.99
2018-06-17T05:22:58.070Z,97.24
2018-06-17T05:23:58.073Z,93.96
2018-06-17T05:24:58.075Z,92.29
2018-06-17T05:25:58.078Z,90.07
2018-06-17T05:26:58.082Z,90.31
2018-06-17T05:27:58.087Z,89.68
2018-06-17T05:28:58.090Z,88.82
2018-06-17T05:29:58.095Z,89.93
2018-06-17T05:30:58.100Z,90.99
2018-06-17T05:31:58.107Z,89.83
2018-06-17T05:32:58.114Z,87.67
2018-06-17T05:33:58.118Z,87.71
2018-06-17T05:34:58.126Z,86.36
2018-06-17T05:35:58.133Z,86.18
2018-06-17T05:36:58.141Z,86.02
2018-06-17T05:37:58.148Z,86.02
2018-06-17T05:38:58.156Z,85.39
2018-06-17T05:39:58.164Z,83.85
2018-06-17T05:40:58.173Z,84.33
2018-06-17T05:41:58.181Z,82.85
2018-06-17T05:42:58.192Z,83.91
2018-06-17T05:43:58.204Z,82.54
2018-06-17T05:44:58.209Z,81.60
2018-06-17T05:45:58.218Z,83.33
2018-06-17T05:46:58.228Z,83.33
2018-06-17T05:47:58.237Z,83.91
2018-06-17T05:48:58.247Z,85.17
2018-06-17T05:49:58.255Z,86.28
2018-06-17T05:50:58.265Z,87.72
2018-06-17T05:51:58.273Z,88.49
2018-06-17T05:52:58.283Z,88.87
2018-06-17T05:53:58.291Z,89.40
2018-06-17T05:54:58.299Z,90.08
2018-06-17T05:55:58.310Z,90.99
2018-06-17T05:56:58.317Z,90.99
2018-06-17T05:57:58.323Z,91.86
2018-06-17T05:58:58.333Z,92.05
2018-06-17T05:59:58.338Z,92.19
2018-06-17T06:00:58.345Z,92.33
2018-06-17T06:01:58.352Z,93.10
2018-06-17T06:02:58.360Z,93.30
2018-06-17T06:03:58.380Z,93.77
2018-06-17T06:04:58.373Z,93.10
2018-06-17T06:05:58.379Z,93.10
2018-06-17T06:06:58.385Z,93.39
2018-06-17T06:07:58.392Z,93.97
2018-06-17T06:08:58.396Z,93.06
2018-06-17T06:09:58.411Z,93.15
2018-06-17T06:10:58.409Z,92.86
2018-06-17T06:11:58.416Z,94.12
2018-06-17T06:12:58.420Z,93.35
2018-06-17T06:13:58.425Z,93.92
2018-06-17T06:14:58.431Z,93.97
2018-06-17T06:15:58.436Z,93.49
2018-06-17T06:16:58.444Z,92.29
2018-06-17T06:17:58.446Z,92.39
2018-06-17T06:18:58.451Z,92.77
2018-06-17T06:19:58.456Z,92.72
2018-06-17T06:20:58.462Z,92.48
2018-06-17T06:21:58.466Z,93.15
2018-06-17T06:22:58.471Z,92.48
2018-06-17T06:23:58.475Z,93.35
2018-06-17T06:24:58.481Z,93.44
2018-06-17T06:25:58.483Z,92.48
2018-06-17T06:26:58.501Z,92.19
2018-06-17T06:27:58.494Z,92.82
2018-06-17T06:28:58.501Z,92.43
2018-06-17T06:29:58.503Z,92.53
2018-06-17T06:30:58.511Z,92.72
2018-06-17T06:31:58.510Z,92.24
2018-06-17T06:32:58.516Z,91.76
2018-06-17T06:33:58.519Z,91.28
2018-06-17T06:34:58.523Z,90.80
2018-06-17T06:35:58.528Z,91.38
2018-06-17T06:36:58.532Z,90.52
2018-06-17T06:37:58.536Z,90.42
2018-06-17T06:38:58.540Z,91.86
2018-06-17T06:39:58.544Z,91.38
2018-06-17T06:40:58.549Z,90.80
2018-06-17T06:41:58.552Z,90.42
2018-06-17T06:42:58.586Z,91.28
2018-06-17T06:43:58.561Z,90.22
2018-06-17T06:44:58.565Z,90.03
2018-06-17T06:45:58.568Z,90.03
2018-06-17T06:46:58.572Z,90.61
2018-06-17T06:47:58.576Z,90.70
2018-06-17T06:48:58.580Z,90.03
2018-06-17T06:49:58.587Z,89.84
2018-06-17T06:50:58.654Z,90.03
2018-06-17T06:51:58.592Z,90.94
2018-06-17T06:52:58.596Z,90.27
2018-06-17T06:53:58.599Z,89.79
2018-06-17T06:54:58.602Z,90.84
2018-06-17T06:55:58.607Z,88.93
2018-06-17T06:56:58.612Z,88.73
2018-06-17T06:57:58.614Z,89.02
2018-06-17T06:58:58.619Z,88.69
2018-06-17T06:59:58.623Z,88.73
2018-06-17T07:00:58.629Z,88.16
2018-06-17T07:01:58.630Z,88.73
2018-06-17T07:02:58.635Z,88.25
2018-06-17T07:03:58.639Z,87.87
2018-06-17T07:04:58.643Z,88.16
2018-06-17T07:05:58.647Z,88.35
2018-06-17T07:06:58.651Z,88.25
2018-06-17T07:07:58.655Z,88.16
2018-06-17T07:08:58.663Z,88.35
2018-06-17T07:09:58.670Z,88.01
2018-06-17T07:10:58.668Z,87.24
2018-06-17T07:11:58.672Z,87.48
2018-06-17T07:12:58.678Z,87.19
2018-06-17T07:13:58.680Z,87.86
2018-06-17T07:14:58.684Z,87.19
2018-06-17T07:15:58.692Z,86.28
2018-06-17T07:16:58.694Z,86.66
2018-06-17T07:17:58.697Z,87.05
2018-06-17T07:18:58.701Z,86.18
2018-06-17T07:19:58.706Z,86.38
2018-06-17T07:20:58.710Z,86.57
2018-06-17T07:21:58.717Z,87.05
2018-06-17T07:22:58.720Z,87.34
2018-06-17T07:23:58.724Z,87.43
2018-06-17T07:24:58.740Z,86.85
2018-06-17T07:25:58.733Z,86.22
2018-06-17T07:26:58.741Z,86.32
2018-06-17T07:27:58.744Z,86.04
2018-06-17T07:28:58.748Z,84.63
2018-06-17T07:29:58.756Z,84.87
2018-06-17T07:30:58.759Z,82.46
2018-06-17T07:31:58.764Z,81.40
2018-06-17T07:32:58.769Z,81.21
2018-06-17T07:33:58.778Z,82.65
2018-06-17T07:34:58.786Z,81.79
2018-06-17T07:35:58.800Z,81.50
2018-06-17T07:36:58.796Z,82.75
2018-06-17T07:37:58.808Z,81.98
2018-06-17T07:38:58.810Z,81.30
2018-06-17T07:39:58.819Z,81.02
2018-06-17T07:40:58.825Z,81.50
2018-06-17T07:41:58.832Z,81.21
2018-06-17T07:42:58.838Z,81.45
2018-06-17T07:43:58.847Z,80.48
2018-06-17T07:44:58.855Z,79.96
2018-06-17T07:45:58.868Z,80.00
2018-06-17T07:46:58.871Z,79.67
2018-06-17T07:47:58.885Z,80.83
2018-06-17T07:48:58.888Z,80.48
2018-06-17T07:49:58.902Z,80.58
2018-06-17T07:50:58.903Z,79.71
2018-06-17T07:51:58.917Z,79.90
2018-06-17T07:52:58.920Z,80.35
2018-06-17T07:53:58.930Z,80.73
2018-06-17T07:54:58.937Z,81.30
2018-06-17T07:55:58.971Z,81.50
2018-06-17T07:56:58.955Z,80.83
2018-06-17T07:57:58.962Z,80.63
2018-06-17T07:58:58.972Z,80.68
2018-06-17T07:59:58.980Z,79.21
2018-06-17T08:00:58.989Z,77.09
2018-06-17T08:01:58.997Z,77.48
2018-06-17T08:02:59.006Z,76.32
2018-06-17T08:03:59.016Z,75.55
2018-06-17T08:04:59.025Z,75.93
2018-06-17T08:05:59.034Z,74.78
2018-06-17T08:06:59.043Z,75.65
2018-06-17T08:07:59.054Z,75.61
2018-06-17T08:08:59.064Z,76.28
2018-06-17T08:09:59.073Z,77.09
2018-06-17T08:10:59.184Z,76.51
2018-06-17T08:11:59.094Z,76.03
2018-06-17T08:12:59.104Z,75.10
2018-06-17T08:13:59.112Z,75.68
2018-06-17T08:14:59.122Z,76.57
2018-06-17T08:15:59.132Z,78.56
2018-06-17T08:16:59.143Z,79.58
2018-06-17T08:17:59.151Z,80.35
2018-06-17T08:18:59.161Z,80.50
2018-06-17T08:19:59.171Z,81.60
2018-06-17T08:20:59.180Z,81.46
2018-06-17T08:21:59.190Z,81.75
2018-06-17T08:22:59.198Z,80.79
2018-06-17T08:23:59.209Z,81.07
2018-06-17T08:24:59.244Z,80.21
2018-06-17T08:25:59.232Z,80.48
2018-06-17T08:26:59.235Z,79.23
2018-06-17T08:27:59.247Z,79.43
2018-06-17T08:28:59.254Z,79.52
2018-06-17T08:29:59.260Z,77.06
2018-06-17T08:30:59.270Z,77.88
2018-06-17T08:31:59.288Z,79.48
2018-06-17T08:32:59.287Z,79.86
2018-06-17T08:33:59.301Z,79.67
2018-06-17T08:34:59.302Z,79.43
2018-06-17T08:35:59.317Z,79.10
2018-06-17T08:36:59.319Z,79.48
2018-06-17T08:37:59.326Z,80.40
2018-06-17T08:38:59.335Z,80.35
2018-06-17T08:39:59.350Z,80.19
2018-06-17T08:40:59.351Z,79.43
2018-06-17T08:41:59.358Z,77.88
2018-06-17T08:42:59.367Z,76.21
2018-06-17T08:43:59.374Z,76.50
2018-06-17T08:44:59.382Z,76.59
2018-06-17T08:45:59.389Z,76.44
2018-06-17T08:46:59.395Z,76.48
2018-06-17T08:47:59.411Z,75.71
2018-06-17T08:48:59.412Z,75.51
2018-06-17T08:49:59.426Z,75.51
2018-06-17T08:50:59.427Z,76.18
2018-06-17T08:51:59.441Z,75.26
2018-06-17T08:52:59.442Z,73.85
2018-06-17T08:53:59.449Z,72.99
2018-06-17T08:54:59.458Z,72.44
2018-06-17T08:55:59.472Z,71.96
2018-06-17T08:56:59.474Z,71.19
2018-06-17T08:57:59.480Z,70.96
2018-06-17T08:58:59.489Z,72.44
2018-06-17T08:59:59.503Z,72.50
2018-06-17T09:00:59.505Z,73.14
2018-06-17T09:01:59.513Z,73.72
2018-06-17T09:02:59.521Z,75.51
2018-06-17T09:03:59.537Z,75.57
2018-06-17T09:04:59.538Z,77.17
2018-06-17T09:05:59.550Z,77.40
2018-06-17T09:06:59.554Z,76.63
2018-06-17T09:07:59.562Z,75.67
2018-06-17T09:08:59.570Z,75.09
2018-06-17T09:09:59.578Z,74.99
2018-06-17T09:10:59.587Z,75.67
2018-06-17T09:11:59.602Z,75.13
2018-06-17T09:12:59.605Z,75.32
2018-06-17T09:13:59.613Z,74.45
2018-06-17T09:14:59.617Z,75.13
2018-06-17T09:15:59.631Z,74.45
2018-06-17T09:16:59.634Z,75.80
2018-06-17T09:17:59.649Z,75.90
2018-06-17T09:18:59.648Z,75.61
2018-06-17T09:19:59.657Z,75.36
2018-06-17T09:20:59.711Z,76.34
2018-06-17T09:21:59.718Z,77.69
2018-06-17T09:22:59.678Z,77.59
2018-06-17T09:23:59.686Z,76.59
2018-06-17T09:24:59.697Z,76.11
2018-06-17T09:25:59.701Z,76.73
2018-06-17T09:26:59.707Z,75.34
2018-06-17T09:27:59.715Z,76.21
2018-06-17T09:28:59.722Z,77.04
2018-06-17T09:29:59.729Z,76.21
2018-06-17T09:30:59.738Z,76.40
2018-06-17T09:31:59.771Z,76.59
2018-06-17T09:32:59.751Z,77.26
2018-06-17T09:33:59.757Z,77.98
2018-06-17T09:34:59.765Z,77.88
2018-06-17T09:35:59.773Z,76.69
2018-06-17T09:36:59.780Z,77.65
2018-06-17T09:37:59.789Z,77.65
2018-06-17T09:38:59.792Z,78.27
2018-06-17T09:39:59.802Z,76.73
2018-06-17T09:40:59.809Z,75.51
2018-06-17T09:41:59.811Z,76.28
2018-06-17T09:42:59.819Z,74.40
2018-06-17T09:43:59.825Z,72.85
2018-06-17T09:44:59.833Z,75.74
2018-06-17T09:45:59.839Z,75.74
2018-06-17T09:46:59.847Z,73.91
2018-06-17T09:47:59.853Z,73.62
2018-06-17T09:48:59.861Z,74.45
2018-06-17T09:49:59.866Z,75.03
2018-06-17T09:50:59.873Z,74.93
2018-06-17T09:51:59.892Z,75.03
2018-06-17T09:52:59.890Z,74.22
2018-06-17T09:53:59.893Z,74.51
2018-06-17T09:54:59.901Z,74.22
2018-06-17T09:55:59.908Z,74.80
2018-06-17T09:56:59.914Z,74.32
2018-06-17T09:57:59.921Z,75.86
2018-06-17T09:58:59.928Z,75.86
2018-06-17T09:59:59.936Z,76.44
2018-06-17T10:00:59.944Z,74.99
2018-06-17T10:01:59.949Z,75.09
2018-06-17T10:02:59.955Z,74.93
2018-06-17T10:03:59.963Z,75.67
2018-06-17T10:04:59.975Z,75.23
2018-06-17T10:05:59.976Z,74.65
2018-06-17T10:06:59.984Z,74.74
2018-06-17T10:07:59.989Z,75.36
2018-06-17T10:09:00.038Z,74.58
2018-06-17T10:10:00.008Z,73.14
2018-06-17T10:11:00.011Z,73.72
2018-06-17T10:12:00.018Z,73.24
2018-06-17T10:13:00.027Z,73.24
2018-06-17T10:14:00.031Z,73.82
2018-06-17T10:15:00.046Z,73.53
2018-06-17T10:16:00.081Z,74.40
2018-06-17T10:17:00.053Z,75.13
2018-06-17T10:18:00.058Z,76.28
2018-06-17T10:19:00.067Z,76.06
2018-06-17T10:20:00.073Z,76.15
2018-06-17T10:21:00.081Z,76.69
2018-06-17T10:22:00.086Z,76.78
2018-06-17T10:23:00.094Z,77.31
2018-06-17T10:24:00.101Z,76.34
2018-06-17T10:25:00.109Z,76.53
2018-06-17T10:26:00.115Z,76.73
2018-06-17T10:27:00.121Z,76.44
2018-06-17T10:28:00.128Z,76.25
2018-06-17T10:29:00.135Z,77.11
2018-06-17T10:30:00.143Z,77.40
2018-06-17T10:31:00.147Z,75.99
2018-06-17T10:32:00.155Z,75.71
2018-06-17T10:33:00.161Z,75.09
2018-06-17T10:34:00.167Z,75.76
2018-06-17T10:35:00.175Z,76.11
2018-06-17T10:36:00.182Z,76.25
2018-06-17T10:37:00.190Z,76.73
2018-06-17T10:38:00.209Z,75.57
2018-06-17T10:39:00.200Z,74.51
2018-06-17T10:40:00.207Z,74.80
2018-06-17T10:41:00.214Z,75.76
2018-06-17T10:42:00.219Z,75.23
2018-06-17T10:43:00.226Z,73.78
2018-06-17T10:44:00.233Z,72.63
2018-06-17T10:45:00.241Z,73.30
2018-06-17T10:46:00.246Z,72.91
2018-06-17T10:47:00.252Z,73.58
2018-06-17T10:48:00.260Z,73.88
2018-06-17T10:49:00.265Z,73.20
2018-06-17T10:50:00.275Z,73.39
2018-06-17T10:51:00.278Z,73.97
2018-06-17T10:52:00.285Z,74.84
2018-06-17T10:53:00.292Z,74.71
2018-06-17T10:54:00.298Z,76.40
2018-06-17T10:55:00.305Z,76.40
2018-06-17T10:56:00.409Z,76.40
2018-06-17T10:57:00.318Z,76.25
2018-06-17T10:58:00.324Z,75.67
2018-06-17T10:59:00.329Z,74.71
2018-06-17T11:00:00.338Z,75.86
2018-06-17T11:01:00.346Z,76.25
2018-06-17T11:02:00.351Z,76.15
2018-06-17T11:03:00.356Z,75.42
2018-06-17T11:04:00.363Z,72.68
2018-06-17T11:05:00.370Z,72.78
2018-06-17T11:06:00.376Z,71.91
2018-06-17T11:07:00.382Z,72.68
2018-06-17T11:08:00.389Z,73.07
2018-06-17T11:09:00.398Z,73.16
2018-06-17T11:10:00.401Z,73.65
2018-06-17T11:11:00.409Z,73.55
2018-06-17T11:12:00.416Z,73.46
2018-06-17T11:13:00.464Z,73.49
2018-06-17T11:14:00.426Z,74.74
2018-06-17T11:15:00.434Z,72.53
2018-06-17T11:16:00.443Z,72.33
2018-06-17T11:17:00.446Z,71.62
2018-06-17T11:18:00.452Z,71.04
2018-06-17T11:19:00.459Z,71.49
2018-06-17T11:20:00.467Z,72.39
2018-06-17T11:21:00.471Z,73.51
2018-06-17T11:22:00.478Z,71.62
2018-06-17T11:23:00.486Z,71.14
2018-06-17T11:24:00.491Z,71.59
2018-06-17T11:25:00.496Z,71.43
2018-06-17T11:26:00.502Z,71.53
2018-06-17T11:27:00.508Z,71.76
2018-06-17T11:28:00.515Z,70.66
2018-06-17T11:29:00.521Z,71.14
2018-06-17T11:30:00.526Z,71.34
2018-06-17T11:31:00.533Z,69.95
2018-06-17T11:32:00.540Z,69.95
2018-06-17T11:33:00.547Z,70.21
2018-06-17T11:34:00.551Z,70.72
2018-06-17T11:35:00.561Z,70.92
2018-06-17T11:36:00.567Z,71.36
2018-06-17T11:37:00.570Z,72.03
2018-06-17T11:38:00.577Z,72.61
2018-06-17T11:39:00.666Z,72.84
2018-06-17T11:40:00.595Z,72.55
2018-06-17T11:41:00.594Z,72.07
2018-06-17T11:42:00.603Z,72.30
2018-06-17T11:43:00.606Z,71.30
2018-06-17T11:44:00.612Z,71.53
2018-06-17T11:45:00.616Z,69.51
2018-06-17T11:46:00.625Z,69.70
2018-06-17T11:47:00.629Z,69.22
2018-06-17T11:48:00.636Z,69.02
2018-06-17T11:49:00.640Z,68.74
2018-06-17T11:50:00.646Z,68.35
2018-06-17T11:51:00.674Z,67.58
2018-06-17T11:52:00.659Z,67.42
2018-06-17T11:53:00.665Z,68.19
2018-06-17T11:54:00.674Z,65.78
2018-06-17T11:55:00.678Z,64.28
2018-06-17T11:56:00.684Z,63.67
2018-06-17T11:57:00.692Z,63.67
2018-06-17T11:58:00.695Z,64.92
2018-06-17T11:59:00.703Z,63.95
2018-06-17T12:00:00.707Z,63.95
2018-06-17T12:01:00.714Z,64.43
2018-06-17T12:02:00.720Z,64.63
2018-06-17T12:03:00.726Z,64.34
2018-06-17T12:04:00.733Z,64.79
2018-06-17T12:05:00.737Z,65.85
2018-06-17T12:06:00.745Z,64.34
2018-06-17T12:07:00.757Z,64.05
2018-06-17T12:08:00.758Z,63.85
2018-06-17T12:09:00.762Z,64.43
2018-06-17T12:10:00.769Z,64.25
2018-06-17T12:11:00.776Z,62.70
2018-06-17T12:12:00.783Z,62.73
2018-06-17T12:13:00.789Z,63.02
2018-06-17T12:14:00.794Z,62.93
2018-06-17T12:15:00.802Z,63.02
2018-06-17T12:16:00.809Z,63.12
2018-06-17T12:17:00.816Z,63.85
2018-06-17T12:18:00.820Z,64.28
2018-06-17T12:19:00.828Z,64.63
2018-06-17T12:20:00.833Z,64.92
2018-06-17T12:21:00.840Z,64.53
2018-06-17T12:22:00.846Z,63.76
2018-06-17T12:23:00.855Z,64.53
2018-06-17T12:24:00.860Z,64.28
2018-06-17T12:25:00.866Z,63.09
2018-06-17T12:26:00.871Z,63.89
2018-06-17T12:27:00.878Z,63.41
2018-06-17T12:28:00.885Z,63.02
2018-06-17T12:29:00.893Z,63.98
2018-06-17T12:30:00.898Z,64.56
2018-06-17T12:31:00.903Z,64.76
2018-06-17T12:32:00.911Z,65.24
2018-06-17T12:33:00.918Z,64.66
2018-06-17T12:34:00.923Z,64.15
2018-06-17T12:35:00.930Z,63.47
2018-06-17T12:36:00.937Z,64.21
2018-06-17T12:37:00.943Z,64.82
2018-06-17T12:38:00.949Z,65.14
2018-06-17T12:39:00.955Z,64.08
2018-06-17T12:40:00.962Z,63.09
2018-06-17T12:41:00.973Z,64.63
2018-06-17T12:42:00.975Z,64.82
2018-06-17T12:43:00.982Z,64.63
2018-06-17T12:44:00.988Z,64.86
2018-06-17T12:45:00.995Z,63.31
2018-06-17T12:46:01.005Z,61.65
2018-06-17T12:47:01.008Z,62.32
2018-06-17T12:48:01.015Z,62.99
2018-06-17T12:49:01.035Z,63.73
2018-06-17T12:50:01.027Z,64.63
2018-06-17T12:51:01.033Z,64.53
2018-06-17T12:52:01.039Z,64.53
2018-06-17T12:53:01.046Z,62.99